createdAt,value
2024-02-20T00:02:09.399Z,99388.48
2024-02-20T00:04:36.791Z,99386.95
2024-02-20T00:07:04.416Z,99387.33
2024-02-20T00:09:31.699Z,99385.27
2024-02-20T00:11:58.642Z,99385.55
2024-02-20T00:14:25.737Z,99382.13
2024-02-20T00:16:53.513Z,99374.30
2024-02-20T00:19:21.266Z,99374.87
2024-02-20T00:21:48.351Z,99370.36
2024-02-20T00:24:15.462Z,99365.25
2024-02-20T00:26:44.850Z,99360.89
2024-02-20T00:29:12.145Z,99358.67
2024-02-20T00:31:39.378Z,99352.77
2024-02-20T00:34:06.757Z,99352.27
2024-02-20T00:36:34.283Z,99352.80
2024-02-20T00:39:03.792Z,99347.54
2024-02-20T00:41:32.013Z,99343.45
2024-02-20T00:43:59.250Z,99339.70
2024-02-20T00:46:26.447Z,99338.08
2024-02-20T00:48:53.417Z,99335.92
2024-02-20T00:51:22.890Z,99334.38
2024-02-20T00:53:50.351Z,99332.58
2024-02-20T00:56:17.852Z,99324.83
2024-02-20T00:58:45.650Z,99322.95
2024-02-20T01:01:13.794Z,99323.14
2024-02-20T01:03:45.031Z,99318.41
2024-02-20T01:06:12.302Z,99319.44
2024-02-20T01:08:40.632Z,99320.31
2024-02-20T01:11:08.063Z,99319.65
2024-02-20T01:13:35.846Z,99326.31
2024-02-20T01:16:03.100Z,99325.99
2024-02-20T01:18:30.347Z,99319.67
2024-02-20T01:20:57.546Z,99320.39
2024-02-20T01:23:24.683Z,99316.64
2024-02-20T01:25:51.716Z,99314.63
2024-02-20T01:28:18.799Z,99316.64
2024-02-20T01:30:47.693Z,99318.41
2024-02-20T01:33:14.901Z,99319.62
2024-02-20T01:35:42.160Z,99309.58
2024-02-20T01:38:09.244Z,99302.32
2024-02-20T01:40:40.527Z,99293.52
2024-02-20T01:43:07.996Z,99284.67
2024-02-20T01:45:35.712Z,99283.20
2024-02-20T01:48:05.008Z,99282.30
2024-02-20T01:50:35.769Z,99283.48
2024-02-20T01:53:04.091Z,99282.13
2024-02-20T01:55:33.412Z,99281.59
2024-02-20T01:58:01.487Z,99280.86
2024-02-20T02:00:29.013Z,99275.51
2024-02-20T02:02:57.253Z,99270.53
2024-02-20T02:05:24.830Z,99264.19
2024-02-20T02:07:52.173Z,99264.58
2024-02-20T02:10:19.499Z,99263.95
2024-02-20T02:12:46.725Z,99259.45
2024-02-20T02:15:13.698Z,99259.31
2024-02-20T02:17:41.014Z,99258.81
2024-02-20T02:20:09.240Z,99258.95
2024-02-20T02:22:36.867Z,99263.10
2024-02-20T02:25:04.975Z,99263.33
2024-02-20T02:27:32.194Z,99268.83
2024-02-20T02:29:59.353Z,99264.50
2024-02-20T02:32:26.450Z,99262.80
2024-02-20T02:34:53.673Z,99260.04
2024-02-20T02:37:21.040Z,99256.47
2024-02-20T02:39:48.054Z,99258.53
2024-02-20T02:42:15.335Z,99259.47
2024-02-20T02:44:44.624Z,99251.95
2024-02-20T02:47:11.633Z,99250.84
2024-02-20T02:49:38.906Z,99245.38
2024-02-20T02:52:07.277Z,99242.12
2024-02-20T02:54:34.255Z,99238.33
2024-02-20T02:57:01.129Z,99236.91
2024-02-20T02:59:28.141Z,99238.02
2024-02-20T03:01:55.452Z,99237.65
2024-02-20T03:04:22.593Z,99235.23
2024-02-20T03:06:51.257Z,99241.71
2024-02-20T03:09:22.519Z,99240.95
2024-02-20T03:11:49.521Z,99240.58
2024-02-20T03:14:17.558Z,99244.25
2024-02-20T03:16:45.189Z,99242.98
2024-02-20T03:19:12.616Z,99247.48
2024-02-20T03:21:40.136Z,99253.09
2024-02-20T03:24:07.258Z,99253.52
2024-02-20T03:26:34.500Z,99260.19
2024-02-20T03:29:01.859Z,99269.34
2024-02-20T03:31:29.939Z,99268.77
2024-02-20T03:33:57.608Z,99278.08
2024-02-20T03:36:25.006Z,99279.53
2024-02-20T03:38:52.222Z,99283.06
2024-02-20T03:41:19.285Z,99283.80
2024-02-20T03:43:46.400Z,99285.02
2024-02-20T03:46:13.564Z,99286.11
2024-02-20T03:48:40.935Z,99281.76
2024-02-20T03:51:08.147Z,99284.82
2024-02-20T03:53:35.388Z,99285.85
2024-02-20T03:56:02.758Z,99291.86
2024-02-20T03:58:30.292Z,99290.48
2024-02-20T04:00:57.524Z,99294.25
2024-02-20T04:03:24.732Z,99292.13
2024-02-20T04:05:51.829Z,99286.40
2024-02-20T04:08:19.961Z,99283.95
2024-02-20T04:10:47.328Z,99274.55
2024-02-20T04:13:15.371Z,99270.23
2024-02-20T04:15:42.709Z,99256.86
2024-02-20T04:18:09.748Z,99259.48
2024-02-20T04:20:36.958Z,99261.72
2024-02-20T04:23:07.387Z,99259.23
2024-02-20T04:25:34.567Z,99262.92
2024-02-20T04:28:01.861Z,99265.02
2024-02-20T04:30:29.106Z,99271.63
2024-02-20T04:32:56.894Z,99273.71
2024-02-20T04:35:24.101Z,99272.68
2024-02-20T04:37:51.245Z,99276.77
2024-02-20T04:40:19.341Z,99285.43
2024-02-20T04:42:46.410Z,99292.17
2024-02-20T04:45:13.632Z,99292.52
2024-02-20T04:47:41.137Z,99296.84
2024-02-20T04:50:08.698Z,99300.89
2024-02-20T04:52:35.937Z,99304.48
2024-02-20T04:55:03.418Z,99302.05
2024-02-20T04:57:30.587Z,99302.55
2024-02-20T04:59:57.794Z,99306.56
2024-02-20T05:02:25.208Z,99308.23
2024-02-20T05:04:55.323Z,99310.27
2024-02-20T05:07:24.208Z,99312.06
2024-02-20T05:09:51.365Z,99310.84
2024-02-20T05:12:18.618Z,99311.72
2024-02-20T05:14:50.518Z,99311.98
2024-02-20T05:17:17.828Z,99312.14
2024-02-20T05:19:45.096Z,99317.46
2024-02-20T05:22:13.355Z,99322.22
2024-02-20T05:24:43.328Z,99316.22
2024-02-20T05:27:10.416Z,99312.45
2024-02-20T05:29:37.422Z,99309.77
2024-02-20T05:32:04.794Z,99307.60
2024-02-20T05:34:32.140Z,99304.23
2024-02-20T05:36:59.407Z,99313.94
2024-02-20T05:39:26.991Z,99318.77
2024-02-20T05:41:54.176Z,99318.52
2024-02-20T05:44:21.516Z,99319.08
2024-02-20T05:46:48.540Z,99319.72
2024-02-20T05:49:15.988Z,99322.42
2024-02-20T05:51:43.129Z,99324.06
2024-02-20T05:54:10.368Z,99324.45
2024-02-20T05:56:37.645Z,99321.20
2024-02-20T05:59:06.087Z,99322.83
2024-02-20T06:01:33.307Z,99323.70
2024-02-20T06:04:05.518Z,99319.99
2024-02-20T06:06:35.327Z,99316.62
2024-02-20T06:09:03.552Z,99316.52
2024-02-20T06:11:30.910Z,99314.64
2024-02-20T06:13:58.132Z,99309.56
2024-02-20T06:16:26.830Z,99309.82
2024-02-20T06:18:54.272Z,99312.38
2024-02-20T06:21:23.315Z,99309.54
2024-02-20T06:23:51.974Z,99310.97
2024-02-20T06:26:19.507Z,99314.48
2024-02-20T06:28:47.685Z,99315.95
2024-02-20T06:31:15.457Z,99316.17
2024-02-20T06:33:43.016Z,99316.59
2024-02-20T06:36:11.392Z,99316.20
2024-02-20T06:38:38.936Z,99322.50
2024-02-20T06:41:06.511Z,99326.25
2024-02-20T06:43:38.644Z,99321.59
2024-02-20T06:46:06.310Z,99324.05
2024-02-20T06:48:33.438Z,99325.44
2024-02-20T06:51:01.966Z,99329.91
2024-02-20T06:53:29.434Z,99339.29
2024-02-20T06:55:56.466Z,99342.80
2024-02-20T06:58:23.484Z,99346.65
2024-02-20T07:00:50.811Z,99349.73
2024-02-20T07:03:18.286Z,99352.21
2024-02-20T07:05:45.684Z,99348.27
2024-02-20T07:08:13.064Z,99343.93
2024-02-20T07:10:40.111Z,99344.89
2024-02-20T07:13:07.143Z,99346.16
2024-02-20T07:15:34.513Z,99349.06
2024-02-20T07:18:01.983Z,99342.13
2024-02-20T07:20:29.402Z,99341.89
2024-02-20T07:22:56.752Z,99342.67
2024-02-20T07:25:25.778Z,99343.48
2024-02-20T07:27:52.685Z,99344.69
2024-02-20T07:30:20.072Z,99343.88
2024-02-20T07:32:47.446Z,99342.41
2024-02-20T07:35:15.738Z,99339.09
2024-02-20T07:37:43.335Z,99342.41
2024-02-20T07:40:11.853Z,99338.05
2024-02-20T07:42:39.906Z,99337.98
2024-02-20T07:45:07.841Z,99337.98
2024-02-20T07:47:38.366Z,99344.48
2024-02-20T07:50:06.778Z,99341.20
2024-02-20T07:52:34.700Z,99340.36
2024-02-20T07:55:03.326Z,99340.36
2024-02-20T07:57:34.415Z,99343.51
2024-02-20T08:00:06.024Z,99345.54
2024-02-20T08:02:33.736Z,99336.30
2024-02-20T08:05:02.411Z,99337.73
2024-02-20T08:07:29.626Z,99336.58
2024-02-20T08:09:57.062Z,99336.00
2024-02-20T08:12:25.436Z,99336.24
2024-02-20T08:14:52.462Z,99336.73
2024-02-20T08:17:23.034Z,99339.17
2024-02-20T08:19:50.623Z,99339.83
2024-02-20T08:22:17.818Z,99344.23
2024-02-20T08:24:45.790Z,99344.59
2024-02-20T08:27:12.963Z,99351.85
2024-02-20T08:29:40.421Z,99346.95
2024-02-20T08:32:07.698Z,99349.09
2024-02-20T08:34:34.900Z,99345.87
2024-02-20T08:37:01.937Z,99352.20
2024-02-20T08:39:29.548Z,99351.97
2024-02-20T08:41:56.839Z,99350.66
2024-02-20T08:44:27.488Z,99356.10
2024-02-20T08:46:56.046Z,99354.73
2024-02-20T08:49:23.866Z,99355.70
2024-02-20T08:51:51.803Z,99355.88
2024-02-20T08:54:19.031Z,99356.70
2024-02-20T08:56:46.179Z,99356.05
2024-02-20T08:59:13.314Z,99360.48
2024-02-20T09:01:41.353Z,99362.67
2024-02-20T09:04:09.233Z,99356.90
2024-02-20T09:06:36.690Z,99355.66
2024-02-20T09:09:03.930Z,99354.59
2024-02-20T09:11:31.436Z,99352.29
2024-02-20T09:13:58.892Z,99349.48
2024-02-20T09:16:26.314Z,99346.25
2024-02-20T09:18:53.615Z,99348.52
2024-02-20T09:21:20.895Z,99345.61
2024-02-20T09:23:49.282Z,99343.17
2024-02-20T09:26:16.437Z,99337.67
2024-02-20T09:28:44.089Z,99340.30
2024-02-20T09:31:11.696Z,99336.89
2024-02-20T09:33:39.072Z,99336.54
2024-02-20T09:36:08.474Z,99332.90
2024-02-20T09:38:36.190Z,99333.05
2024-02-20T09:41:05.829Z,99333.44
2024-02-20T09:43:33.629Z,99334.45
2024-02-20T09:46:07.954Z,99329.87
2024-02-20T09:48:35.821Z,99329.86
2024-02-20T09:51:05.638Z,99325.45
2024-02-20T09:53:35.811Z,99327.48
2024-02-20T09:56:04.021Z,99324.30
2024-02-20T09:58:33.965Z,99324.98
2024-02-20T10:01:05.847Z,99320.23
2024-02-20T10:03:35.113Z,99309.91
2024-02-20T10:06:04.690Z,99323.64
2024-02-20T10:08:33.505Z,99317.25
2024-02-20T10:11:01.203Z,99317.56
2024-02-20T10:13:28.727Z,99319.02
2024-02-20T10:16:05.764Z,99312.17
2024-02-20T10:18:33.172Z,99309.33
2024-02-20T10:21:04.674Z,99310.36
2024-02-20T10:23:32.067Z,99305.63
2024-02-20T10:26:00.144Z,99307.04
2024-02-20T10:28:27.682Z,99300.39
2024-02-20T10:30:56.693Z,99302.07
2024-02-20T10:33:24.447Z,99304.54
2024-02-20T10:36:03.972Z,99307.83
2024-02-20T10:38:31.845Z,99309.55
2024-02-20T10:41:00.644Z,99305.25
2024-02-20T10:43:28.844Z,99302.31
2024-02-20T10:45:57.389Z,99302.07
2024-02-20T10:48:31.484Z,99304.77
2024-02-20T10:51:00.734Z,99298.24
2024-02-20T10:53:30.481Z,99302.00
2024-02-20T10:56:02.888Z,99305.07
2024-02-20T10:58:31.664Z,99299.48
2024-02-20T11:00:59.558Z,99297.73
2024-02-20T11:03:31.149Z,99297.76
2024-02-20T11:06:01.929Z,99290.14
2024-02-20T11:08:29.799Z,99289.67
2024-02-20T11:10:57.507Z,99281.41
2024-02-20T11:13:29.441Z,99278.29
2024-02-20T11:15:57.418Z,99278.10
2024-02-20T11:18:28.175Z,99275.79
2024-02-20T11:21:07.924Z,99275.05
2024-02-20T11:23:38.591Z,99279.92
2024-02-20T11:26:09.778Z,99271.83
2024-02-20T11:28:38.196Z,99269.10
2024-02-20T11:31:06.980Z,99264.28
2024-02-20T11:33:35.668Z,99260.33
2024-02-20T11:36:05.551Z,99259.95
2024-02-20T11:38:34.585Z,99261.43
2024-02-20T11:41:07.148Z,99253.85
2024-02-20T11:43:35.289Z,99255.60
2024-02-20T11:46:03.550Z,99252.52
2024-02-20T11:48:32.475Z,99254.39
2024-02-20T11:51:01.364Z,99255.07
2024-02-20T11:53:28.889Z,99254.52
2024-02-20T11:55:57.445Z,99254.15
2024-02-20T11:58:28.758Z,99251.11
2024-02-20T12:01:06.670Z,99248.49
2024-02-20T12:03:36.768Z,99246.30
2024-02-20T12:06:06.696Z,99244.40
2024-02-20T12:08:54.231Z,99243.55
2024-02-20T12:11:25.374Z,99238.68
2024-02-20T12:13:54.661Z,99235.80
2024-02-20T12:16:28.783Z,99240.64
2024-02-20T12:19:03.648Z,99242.24
2024-02-20T12:21:40.119Z,99239.61
2024-02-20T12:24:11.213Z,99238.02
2024-02-20T12:26:38.720Z,99236.83
2024-02-20T12:29:06.962Z,99236.46
2024-02-20T12:31:35.445Z,99229.28
2024-02-20T12:34:06.267Z,99221.71
2024-02-20T12:36:34.846Z,99224.34
2024-02-20T12:39:03.043Z,99229.44
2024-02-20T12:41:31.715Z,99224.58
2024-02-20T12:43:59.199Z,99233.17
2024-02-20T12:46:26.876Z,99229.46
2024-02-20T12:48:56.355Z,99222.92
2024-02-20T12:51:28.204Z,99227.75
2024-02-20T12:53:56.723Z,99223.19
2024-02-20T12:56:25.761Z,99229.60
2024-02-20T12:58:53.165Z,99227.41
2024-02-20T13:01:20.539Z,99221.38
2024-02-20T13:03:48.221Z,99222.91
2024-02-20T13:06:15.812Z,99216.77
2024-02-20T13:08:43.298Z,99217.58
2024-02-20T13:11:11.327Z,99219.83
2024-02-20T13:13:38.800Z,99221.27
2024-02-20T13:16:06.948Z,99221.17
2024-02-20T13:18:34.505Z,99220.02
2024-02-20T13:21:05.825Z,99221.50
2024-02-20T13:23:33.054Z,99225.98
2024-02-20T13:26:00.755Z,99222.55
2024-02-20T13:28:28.327Z,99222.64
2024-02-20T13:30:55.468Z,99217.13
2024-02-20T13:33:23.468Z,99219.33
2024-02-20T13:35:51.137Z,99229.86
2024-02-20T13:38:18.515Z,99220.33
2024-02-20T13:40:45.895Z,99220.23
2024-02-20T13:43:13.395Z,99214.64
2024-02-20T13:45:50.051Z,99217.81
2024-02-20T13:48:18.107Z,99230.94
2024-02-20T13:50:47.453Z,99226.27
2024-02-20T13:53:16.774Z,99228.58
2024-02-20T13:55:47.574Z,99231.95
2024-02-20T13:58:15.376Z,99226.04
2024-02-20T14:00:46.313Z,99230.21
2024-02-20T14:03:18.109Z,99217.73
2024-02-20T14:05:46.349Z,99220.57
2024-02-20T14:08:14.716Z,99216.02
2024-02-20T14:10:42.033Z,99214.20
2024-02-20T14:13:09.669Z,99215.51
2024-02-20T14:15:37.943Z,99214.03
2024-02-20T14:18:05.815Z,99220.01
2024-02-20T14:20:35.560Z,99230.94
2024-02-20T14:23:05.656Z,99234.42
2024-02-20T14:25:34.533Z,99228.86
2024-02-20T14:28:04.503Z,99225.55
2024-02-20T14:30:35.305Z,99228.96
2024-02-20T14:33:05.746Z,99226.54
2024-02-20T14:35:33.233Z,99227.91
2024-02-20T14:38:01.502Z,99221.50
2024-02-20T14:40:28.981Z,99218.48
2024-02-20T14:42:57.754Z,99214.41
2024-02-20T14:45:25.482Z,99216.66
2024-02-20T14:47:52.900Z,99215.37
2024-02-20T14:50:21.829Z,99213.28
2024-02-20T14:52:49.352Z,99222.44
2024-02-20T14:55:17.465Z,99221.78
2024-02-20T14:57:48.495Z,99222.35
2024-02-20T15:00:17.134Z,99221.31
2024-02-20T15:02:44.723Z,99223.92
2024-02-20T15:05:15.811Z,99221.80
2024-02-20T15:07:43.152Z,99222.48
2024-02-20T15:10:13.634Z,99220.77
2024-02-20T15:12:42.855Z,99227.25
2024-02-20T15:15:16.810Z,99235.17
2024-02-20T15:17:46.275Z,99234.42
2024-02-20T15:20:14.180Z,99238.59
2024-02-20T15:22:41.651Z,99234.40
2024-02-20T15:25:16.298Z,99236.45
2024-02-20T15:27:48.533Z,99235.27
2024-02-20T15:30:17.272Z,99238.41
2024-02-20T15:32:46.383Z,99238.02
2024-02-20T15:35:14.708Z,99238.80
2024-02-20T15:37:45.980Z,99242.30
2024-02-20T15:40:13.965Z,99240.77
2024-02-20T15:42:44.915Z,99239.88
2024-02-20T15:45:12.693Z,99240.63
2024-02-20T15:47:41.124Z,99239.81
2024-02-20T15:50:09.155Z,99241.86
2024-02-20T15:52:39.075Z,99242.02
2024-02-20T15:55:08.090Z,99238.47
2024-02-20T15:57:36.156Z,99241.17
2024-02-20T16:00:05.648Z,99244.98
2024-02-20T16:02:34.691Z,99247.48
2024-02-20T16:05:04.476Z,99249.52
2024-02-20T16:07:32.117Z,99257.28
2024-02-20T16:09:59.488Z,99257.23
2024-02-20T16:12:28.025Z,99263.02
2024-02-20T16:15:00.158Z,99269.60
2024-02-20T16:17:29.648Z,99275.84
2024-02-20T16:19:57.563Z,99277.80
2024-02-20T16:22:25.927Z,99282.96
2024-02-20T16:24:53.948Z,99292.56
2024-02-20T16:27:21.905Z,99295.27
2024-02-20T16:29:56.956Z,99293.21
2024-02-20T16:34:53.541Z,99301.38
2024-02-20T16:37:21.710Z,99307.77
2024-02-20T16:39:49.091Z,99308.23
2024-02-20T16:42:17.838Z,99310.27
2024-02-20T16:44:45.798Z,99316.38
2024-02-20T16:47:13.377Z,99320.27
2024-02-20T16:49:41.242Z,99327.38
2024-02-20T16:52:11.940Z,99332.46
2024-02-20T16:54:39.214Z,99339.40
2024-02-20T16:57:11.108Z,99342.13
2024-02-20T16:59:42.191Z,99347.41
2024-02-20T17:02:09.831Z,99352.59
2024-02-20T17:04:38.840Z,99356.12
2024-02-20T17:07:06.329Z,99358.17
2024-02-20T17:09:33.915Z,99365.94
2024-02-20T17:12:01.683Z,99372.45
2024-02-20T17:14:29.416Z,99374.08
2024-02-20T17:16:57.585Z,99382.13
2024-02-20T17:19:25.336Z,99379.90
2024-02-20T17:21:53.251Z,99380.14
2024-02-20T17:24:20.631Z,99385.30
2024-02-20T17:26:50.669Z,99386.33
2024-02-20T17:29:19.389Z,99388.92
2024-02-20T17:31:46.763Z,99385.86
2024-02-20T17:34:14.216Z,99390.45
2024-02-20T17:36:41.990Z,99390.17
2024-02-20T17:39:09.700Z,99392.67
2024-02-20T17:41:37.975Z,99387.48
2024-02-20T17:44:05.225Z,99389.20
2024-02-20T17:46:32.793Z,99392.79
2024-02-20T17:49:01.070Z,99393.67
2024-02-20T17:51:28.914Z,99400.64
2024-02-20T17:53:57.493Z,99403.19
2024-02-20T17:56:25.027Z,99404.17
2024-02-20T17:58:52.235Z,99404.83
2024-02-20T18:01:22.565Z,99405.02
2024-02-20T18:03:50.897Z,99412.33
2024-02-20T18:06:18.824Z,99417.06
2024-02-20T18:08:46.654Z,99419.17
2024-02-20T18:11:15.810Z,99426.34
2024-02-20T18:13:43.652Z,99432.77
2024-02-20T18:16:15.006Z,99434.44
2024-02-20T18:18:42.759Z,99434.73
2024-02-20T18:21:10.376Z,99442.06
2024-02-20T18:23:38.236Z,99444.59
2024-02-20T18:26:05.842Z,99442.20
2024-02-20T18:28:35.135Z,99447.23
2024-02-20T18:31:02.453Z,99443.91
2024-02-20T18:33:29.873Z,99442.76
2024-02-20T18:35:57.880Z,99445.52
2024-02-20T18:38:27.480Z,99443.44
2024-02-20T18:40:55.935Z,99447.19
2024-02-20T18:43:24.709Z,99448.89
2024-02-20T18:45:53.994Z,99451.81
2024-02-20T18:48:24.922Z,99457.25
2024-02-20T18:50:52.562Z,99457.50
2024-02-20T18:53:20.130Z,99463.90
2024-02-20T18:55:52.677Z,99463.42
2024-02-20T18:58:21.758Z,99468.71
2024-02-20T19:00:51.811Z,99465.45
2024-02-20T19:03:19.480Z,99467.63
2024-02-20T19:05:47.537Z,99466.73
2024-02-20T19:08:15.358Z,99468.79
2024-02-20T19:10:42.608Z,99467.20
2024-02-20T19:13:10.360Z,99468.79
2024-02-20T19:15:38.423Z,99471.59
2024-02-20T19:18:06.495Z,99475.69
2024-02-20T19:20:34.230Z,99475.34
2024-02-20T19:23:02.169Z,99474.38
2024-02-20T19:25:30.681Z,99486.40
2024-02-20T19:27:58.391Z,99490.08
2024-02-20T19:30:26.359Z,99497.39
2024-02-20T19:32:56.791Z,99501.63
2024-02-20T19:35:26.382Z,99508.98
2024-02-20T19:37:54.465Z,99513.04
2024-02-20T19:40:22.337Z,99512.48
2024-02-20T19:42:50.619Z,99517.20
2024-02-20T19:45:19.056Z,99518.27
2024-02-20T19:47:49.008Z,99524.96
2024-02-20T19:50:17.791Z,99528.20
2024-02-20T19:52:46.045Z,99530.41
2024-02-20T19:55:15.987Z,99533.47
2024-02-20T19:57:43.889Z,99535.34
2024-02-20T20:00:13.772Z,99535.77
2024-02-20T20:02:42.170Z,99536.16
2024-02-20T20:05:10.500Z,99537.92
2024-02-20T20:07:39.227Z,99541.98
2024-02-20T20:10:08.773Z,99548.63
2024-02-20T20:12:37.990Z,99556.05
2024-02-20T20:15:07.234Z,99562.05
2024-02-20T20:17:35.897Z,99567.59
2024-02-20T20:20:04.447Z,99569.23
2024-02-20T20:22:33.304Z,99567.42
2024-02-20T20:25:01.290Z,99563.19
2024-02-20T20:27:29.366Z,99561.82
2024-02-20T20:29:57.051Z,99559.92
2024-02-20T20:32:24.696Z,99561.27
2024-02-20T20:34:52.233Z,99562.30
2024-02-20T20:37:24.035Z,99567.08
2024-02-20T20:39:55.444Z,99570.48
2024-02-20T20:42:23.939Z,99572.48
2024-02-20T20:44:53.711Z,99576.71
2024-02-20T20:47:28.840Z,99577.48
2024-02-20T20:49:57.115Z,99580.20
2024-02-20T20:52:24.810Z,99582.95
2024-02-20T20:54:53.070Z,99588.08
2024-02-20T20:57:22.603Z,99594.55
2024-02-20T20:59:52.162Z,99593.19
2024-02-20T21:02:21.792Z,99597.53
2024-02-20T21:04:50.014Z,99596.65
2024-02-20T21:07:18.783Z,99595.54
2024-02-20T21:10:06.689Z,99597.24
2024-02-20T21:12:34.999Z,99602.55
2024-02-20T21:15:05.688Z,99597.86
2024-02-20T21:17:33.570Z,99599.25
2024-02-20T21:20:01.693Z,99594.55
2024-02-20T21:22:29.610Z,99585.69
2024-02-20T21:24:57.053Z,99575.45
2024-02-20T21:27:24.670Z,99564.64
2024-02-20T21:29:52.363Z,99557.84
2024-02-20T21:32:20.123Z,99552.63
2024-02-20T21:34:48.426Z,99551.28
2024-02-20T21:37:18.081Z,99547.14
2024-02-20T21:39:45.847Z,99541.98
2024-02-20T21:42:14.663Z,99542.30
2024-02-20T21:44:42.533Z,99541.00
2024-02-20T21:47:10.880Z,99544.17
2024-02-20T21:49:39.111Z,99541.07
2024-02-20T21:52:08.514Z,99543.21
2024-02-20T21:54:36.012Z,99543.39
2024-02-20T21:57:03.597Z,99542.70
2024-02-20T21:59:32.467Z,99544.58
2024-02-20T22:02:00.099Z,99543.96
2024-02-20T22:04:28.237Z,99539.05
2024-02-20T22:06:56.055Z,99544.39
2024-02-20T22:09:23.808Z,99546.33
2024-02-20T22:11:52.140Z,99544.35
2024-02-20T22:14:20.069Z,99542.20
2024-02-20T22:16:48.438Z,99547.38
2024-02-20T22:19:17.037Z,99547.07
2024-02-20T22:21:46.634Z,99554.73
2024-02-20T22:24:16.028Z,99552.52
2024-02-20T22:26:44.758Z,99557.09
2024-02-20T22:29:13.386Z,99557.41
2024-02-20T22:31:41.576Z,99558.88
2024-02-20T22:34:10.191Z,99558.85
2024-02-20T22:36:37.804Z,99558.17
2024-02-20T22:39:05.339Z,99555.04
2024-02-20T22:41:33.139Z,99549.30
2024-02-20T22:44:01.100Z,99550.37
2024-02-20T22:46:28.504Z,99548.96
2024-02-20T22:48:56.070Z,99547.09
2024-02-20T22:51:23.910Z,99548.54
2024-02-20T22:53:51.191Z,99551.13
2024-02-20T22:56:18.459Z,99550.70
2024-02-20T22:58:45.671Z,99549.89
2024-02-20T23:01:12.838Z,99548.36
2024-02-20T23:03:40.168Z,99550.77
2024-02-20T23:06:07.344Z,99557.44
2024-02-20T23:08:35.285Z,99560.36
2024-02-20T23:11:02.470Z,99561.00
2024-02-20T23:13:29.694Z,99562.27
2024-02-20T23:15:57.009Z,99560.95
2024-02-20T23:18:24.270Z,99558.27
2024-02-20T23:20:51.435Z,99557.73
2024-02-20T23:23:18.473Z,99554.83
2024-02-20T23:25:45.523Z,99553.89
2024-02-20T23:28:12.876Z,99554.27
2024-02-20T23:30:39.971Z,99547.41
2024-02-20T23:33:07.323Z,99542.63
2024-02-20T23:35:34.469Z,99540.19
2024-02-20T23:38:01.757Z,99534.46
2024-02-20T23:40:28.802Z,99530.41
2024-02-20T23:42:56.188Z,99527.02
2024-02-20T23:45:23.400Z,99525.97
2024-02-20T23:47:50.494Z,99525.10
2024-02-20T23:50:17.751Z,99521.17
2024-02-20T23:52:44.952Z,99517.34
2024-02-20T23:55:12.261Z,99512.75
2024-02-20T23:57:39.584Z,99519.38
